Time;durP1;ratioP1;P1;durP2;ratioP2;P2;SDS_P1;SDS_P2;PMS_P1;PMS_P2;Temp;Humidity;BMP_temperature;BMP_pressure;BME280_temperature;BME280_humidity;BME280_pressure;Samples;Min_cycle;Max_cycle;Signal;HPM_P1;HPM_P2
2023/06/10 00:02:13;;;;;;;11.45;9.20;;;;;;;22.37;54.10;101319.03;5084623;28;20409;-69
2023/06/10 00:04:38;;;;;;;10.70;8.95;;;;;;;22.36;54.11;101319.13;5084506;28;20024;-69
2023/06/10 00:07:08;;;;;;;9.95;8.98;;;;;;;22.32;55.26;101317.63;5082489;28;20024;-69
2023/06/10 00:09:34;;;;;;;10.55;9.35;;;;;;;22.29;54.56;101321.31;5086671;28;20077;-69
2023/06/10 00:12:00;;;;;;;11.45;9.68;;;;;;;22.23;55.30;101316.41;5080324;28;20392;-69
2023/06/10 00:14:25;;;;;;;12.73;9.27;;;;;;;22.11;55.89;101302.09;5088653;28;20510;-69
2023/06/10 00:16:52;;;;;;;10.40;9.23;;;;;;;22.16;56.01;101320.41;5080995;28;20020;-69
2023/06/10 00:19:18;;;;;;;11.45;9.15;;;;;;;22.10;54.96;101313.66;5088133;28;20020;-69
2023/06/10 00:21:44;;;;;;;10.13;8.88;;;;;;;22.07;55.84;101315.66;5080985;28;20021;-69
2023/06/10 00:24:11;;;;;;;10.55;9.48;;;;;;;22.00;55.69;101319.66;5079034;28;20031;-69
2023/06/10 00:26:40;;;;;;;10.65;9.57;;;;;;;22.02;56.33;101323.94;5083518;28;20024;-69
2023/06/10 00:29:07;;;;;;;12.02;9.70;;;;;;;21.92;55.53;101314.84;5083914;28;20093;-69
2023/06/10 00:31:33;;;;;;;10.57;9.48;;;;;;;21.92;57.06;101328.13;5082143;28;20029;-69
2023/06/10 00:33:59;;;;;;;10.43;9.43;;;;;;;21.85;56.90;101330.31;5085265;28;20028;-69
2023/06/10 00:36:24;;;;;;;11.32;9.63;;;;;;;21.79;56.81;101329.84;5080879;28;20384;-70
2023/06/10 00:38:49;;;;;;;10.98;9.43;;;;;;;21.73;56.71;101323.13;5086406;28;20036;-69
2023/06/10 00:41:15;;;;;;;10.20;9.20;;;;;;;21.65;56.59;101317.44;5072874;28;20025;-69
2023/06/10 00:43:40;;;;;;;10.82;9.60;;;;;;;21.59;57.57;101329.28;5087244;28;20078;-69
2023/06/10 00:46:05;;;;;;;10.82;9.73;;;;;;;21.56;57.79;101331.28;5079962;28;20060;-69
2023/06/10 00:48:32;;;;;;;10.90;9.77;;;;;;;21.48;57.98;101332.63;5086308;28;20522;-69
2023/06/10 00:50:58;;;;;;;11.98;9.75;;;;;;;21.43;59.63;101329.38;5081137;28;20036;-69
2023/06/10 00:53:24;;;;;;;11.40;10.15;;;;;;;21.37;58.39;101319.13;5084669;28;20020;-69
2023/06/10 00:55:50;;;;;;;10.25;9.35;;;;;;;21.27;59.50;101323.28;5082948;28;20028;-68
2023/06/10 00:58:15;;;;;;;11.95;9.85;;;;;;;21.26;59.36;101327.72;5083563;28;20077;-68
2023/06/10 01:00:41;;;;;;;11.02;9.85;;;;;;;21.13;60.01;101318.81;5082772;28;20032;-69
2023/06/10 01:03:07;;;;;;;11.65;9.50;;;;;;;21.10;60.47;101326.94;5082570;28;20021;-68
2023/06/10 01:05:34;;;;;;;13.15;10.45;;;;;;;21.06;59.97;101325.44;5083931;28;20059;-69
2023/06/10 01:08:13;;;;;;;10.75;9.60;;;;;;;21.01;59.46;101325.69;5081380;28;20039;-69
2023/06/10 01:10:47;;;;;;;11.15;9.57;;;;;;;20.91;59.62;101318.38;5083503;28;20042;-69
2023/06/10 01:13:13;;;;;;;11.18;10.10;;;;;;;20.81;60.34;101323.38;5082908;28;20081;-69
2023/06/10 01:15:39;;;;;;;12.30;11.00;;;;;;;20.80;60.50;101324.31;5083054;28;20059;-69
2023/06/10 01:18:14;;;;;;;10.80;9.73;;;;;;;20.75;60.39;101329.88;5083103;28;20024;-69
2023/06/10 01:20:40;;;;;;;12.38;10.18;;;;;;;20.68;60.72;101325.03;5073074;28;20034;-69
2023/06/10 01:23:06;;;;;;;11.60;10.20;;;;;;;20.65;60.70;101335.81;5072240;28;20099;-69
2023/06/10 01:25:36;;;;;;;12.02;10.68;;;;;;;20.66;60.93;101337.50;5080420;28;20032;-69
2023/06/10 01:28:13;;;;;;;11.30;10.15;;;;;;;20.66;61.65;101337.50;5078354;28;20040;-68
2023/06/10 01:31:07;;;;;;;12.85;10.35;;;;;;;20.61;60.87;101334.28;5072558;28;20098;-69
2023/06/10 01:33:35;;;;;;;11.85;10.65;;;;;;;20.52;61.33;101336.50;5074503;28;20037;-69
2023/06/10 01:36:02;;;;;;;11.20;10.10;;;;;;;20.46;61.83;101326.22;5074498;28;20051;-69
2023/06/10 01:38:32;;;;;;;12.25;10.73;;;;;;;20.43;61.78;101331.69;5080790;28;20448;-68
2023/06/10 01:40:58;;;;;;;13.85;10.40;;;;;;;20.34;61.90;101335.72;5079030;28;20032;-68
2023/06/10 01:43:23;;;;;;;11.30;10.30;;;;;;;20.28;62.05;101328.13;5081714;28;20035;-69
2023/06/10 01:45:49;;;;;;;12.30;10.68;;;;;;;20.22;60.71;101328.47;5081971;28;20062;-69
2023/06/10 01:48:14;;;;;;;11.93;10.60;;;;;;;20.19;61.95;101333.94;5084235;28;20029;-69
2023/06/10 01:50:39;;;;;;;13.82;11.50;;;;;;;20.14;62.53;101332.47;5079231;28;20087;-69
2023/06/10 01:53:07;;;;;;;12.02;10.82;;;;;;;20.04;62.93;101334.78;5086502;28;20024;-69
2023/06/10 01:55:32;;;;;;;12.82;11.02;;;;;;;20.02;62.18;101339.31;5075550;28;20035;-69
2023/06/10 01:57:58;;;;;;;14.68;10.95;;;;;;;19.96;63.09;101332.56;5085221;28;20032;-69
2023/06/10 02:00:23;;;;;;;11.77;10.57;;;;;;;19.95;62.72;101337.97;5082112;28;20468;-69
2023/06/10 02:02:48;;;;;;;12.75;10.63;;;;;;;19.85;63.13;101343.75;5090680;28;20043;-69
2023/06/10 02:05:14;;;;;;;12.02;10.85;;;;;;;19.76;63.13;101343.38;5083163;28;20536;-69
2023/06/10 02:07:39;;;;;;;11.93;10.75;;;;;;;19.81;63.05;101349.28;5088939;28;20028;-69
2023/06/10 02:10:06;;;;;;;13.23;10.93;;;;;;;19.72;63.88;101337.41;5084987;28;20422;-69
2023/06/10 02:12:32;;;;;;;13.32;11.15;;;;;;;19.73;63.77;101346.19;5087470;28;20047;-69
2023/06/10 02:14:57;;;;;;;12.95;11.23;;;;;;;19.68;63.87;101348.22;5086644;28;20028;-69
2023/06/10 02:17:23;;;;;;;11.95;10.60;;;;;;;19.65;63.67;101341.28;5085167;28;20519;-69
2023/06/10 02:19:52;;;;;;;12.38;10.82;;;;;;;19.66;64.67;101347.47;5086498;28;20423;-69
2023/06/10 02:22:21;;;;;;;18.15;11.30;;;;;;;19.58;65.34;101342.53;5085797;28;20023;-69
2023/06/10 02:24:46;;;;;;;13.43;11.45;;;;;;;19.53;64.44;101348.06;5085502;28;20028;-68
2023/06/10 02:27:11;;;;;;;12.30;11.05;;;;;;;19.50;65.67;101352.69;5086590;28;20040;-69
2023/06/10 02:29:37;;;;;;;16.38;11.40;;;;;;;19.40;63.99;101349.66;5085727;28;20032;-69
2023/06/10 02:32:03;;;;;;;12.25;10.95;;;;;;;19.37;65.93;101355.09;5080935;28;20028;-68
2023/06/10 02:34:28;;;;;;;12.40;11.10;;;;;;;19.29;65.90;101358.16;5084466;28;20040;-69
2023/06/10 02:36:54;;;;;;;13.45;12.15;;;;;;;19.27;65.50;101352.09;5086232;28;20020;-68
2023/06/10 02:39:19;;;;;;;12.57;11.25;;;;;;;19.27;65.39;101354.72;5084424;28;20023;-69
2023/06/10 02:41:44;;;;;;;12.80;11.50;;;;;;;19.25;65.54;101358.38;5081382;28;20364;-69
2023/06/10 02:44:10;;;;;;;12.73;11.43;;;;;;;19.23;66.18;101347.03;5086482;28;20048;-69
2023/06/10 02:46:35;;;;;;;12.90;11.32;;;;;;;19.24;66.15;101348.75;5083932;28;20385;-69
2023/06/10 02:49:01;;;;;;;13.68;12.25;;;;;;;19.21;66.17;101359.47;5086161;28;20016;-69
2023/06/10 02:51:27;;;;;;;13.30;12.00;;;;;;;19.16;66.17;101355.28;5085880;28;20484;-69
2023/06/10 02:53:52;;;;;;;14.00;11.80;;;;;;;19.12;67.15;101355.50;5083527;28;20071;-69
2023/06/10 02:56:19;;;;;;;13.27;11.48;;;;;;;19.10;67.93;101352.09;5088195;28;20032;-69
2023/06/10 02:58:44;;;;;;;13.82;12.30;;;;;;;19.09;68.00;101351.22;5082559;28;20074;-69
2023/06/10 03:01:10;;;;;;;14.88;12.27;;;;;;;19.08;67.99;101356.59;5089231;28;20025;-69
2023/06/10 03:03:36;;;;;;;13.80;11.90;;;;;;;19.07;68.58;101358.41;5082686;28;20508;-69
2023/06/10 03:06:02;;;;;;;13.15;11.85;;;;;;;19.01;68.33;101358.69;5089875;28;20097;-69
2023/06/10 03:08:28;;;;;;;14.07;12.30;;;;;;;18.95;68.53;101344.00;5081868;28;20464;-69
2023/06/10 03:10:53;;;;;;;13.00;11.60;;;;;;;18.99;68.89;101349.13;5088628;28;20111;-69
2023/06/10 03:13:19;;;;;;;13.93;12.40;;;;;;;18.99;68.40;101363.19;5081857;28;20603;-69
2023/06/10 03:15:45;;;;;;;15.52;12.05;;;;;;;18.96;68.54;101352.78;5087245;28;20591;-69
2023/06/10 03:18:11;;;;;;;16.33;13.18;;;;;;;18.94;69.01;101355.50;5084630;28;20027;-69
2023/06/10 03:20:37;;;;;;;13.93;12.43;;;;;;;18.95;68.79;101359.84;5084982;28;20111;-69
2023/06/10 03:23:04;;;;;;;13.70;12.40;;;;;;;18.89;69.48;101359.31;5085716;28;20027;-69
2023/06/10 03:25:30;;;;;;;13.20;11.82;;;;;;;18.84;69.55;101364.00;5084657;28;20046;-69
2023/06/10 03:27:55;;;;;;;14.55;13.15;;;;;;;18.83;69.36;101365.75;5084319;28;20108;-69
2023/06/10 03:30:21;;;;;;;15.27;13.68;;;;;;;18.85;69.95;101368.31;5084898;28;20040;-69
2023/06/10 03:32:46;;;;;;;16.40;13.25;;;;;;;18.85;70.22;101366.53;5080375;28;20043;-69
2023/06/10 03:35:12;;;;;;;14.15;12.65;;;;;;;18.84;71.20;101371.91;5086477;28;20178;-69
2023/06/10 03:37:37;;;;;;;14.82;13.30;;;;;;;18.80;71.07;101375.59;5082694;28;20039;-69
2023/06/10 03:40:03;;;;;;;14.15;12.75;;;;;;;18.78;71.43;101375.69;5085243;28;20032;-69
2023/06/10 03:42:28;;;;;;;15.18;12.88;;;;;;;18.75;70.96;101373.22;5082147;28;20031;-69
2023/06/10 03:44:54;;;;;;;16.42;12.98;;;;;;;18.80;70.61;101376.50;5083295;28;20023;-69
2023/06/10 03:47:21;;;;;;;16.60;13.43;;;;;;;18.81;71.36;101377.34;5084936;28;20020;-69
2023/06/10 03:49:46;;;;;;;15.00;13.48;;;;;;;18.78;71.68;101380.97;5082366;28;20028;-69
2023/06/10 03:52:11;;;;;;;15.55;12.80;;;;;;;18.82;71.11;101376.41;5084933;28;20024;-69
2023/06/10 03:54:37;;;;;;;14.82;13.23;;;;;;;18.79;71.17;101381.84;5084266;28;20028;-69
2023/06/10 03:57:03;;;;;;;13.88;12.48;;;;;;;18.75;72.25;101378.50;5083179;28;20025;-69
2023/06/10 03:59:28;;;;;;;16.08;14.07;;;;;;;18.74;72.31;101384.72;5084901;28;20020;-69
2023/06/10 04:01:54;;;;;;;16.80;13.73;;;;;;;18.65;72.98;101374.56;5083279;28;20457;-68
2023/06/10 04:04:19;;;;;;;15.38;13.77;;;;;;;18.66;72.94;101386.81;5083785;28;20432;-69
2023/06/10 04:06:45;;;;;;;16.45;14.50;;;;;;;18.64;73.11;101384.28;5084467;28;20078;-69
2023/06/10 04:09:11;;;;;;;16.45;13.90;;;;;;;18.65;73.11;101380.69;5083173;28;20020;-69
2023/06/10 04:11:36;;;;;;;17.83;13.85;;;;;;;18.69;73.15;101378.75;5085862;28;20385;-69
2023/06/10 04:14:02;;;;;;;18.38;13.63;;;;;;;18.72;73.35;101394.47;5081621;28;20035;-69
2023/06/10 04:16:28;;;;;;;16.25;14.38;;;;;;;18.70;73.73;101383.09;5088475;28;20112;-68
2023/06/10 04:18:53;;;;;;;18.45;14.38;;;;;;;18.68;73.67;101384.97;5080776;28;20027;-68
2023/06/10 04:21:18;;;;;;;15.65;14.05;;;;;;;18.69;73.03;101387.53;5089035;28;20581;-69
2023/06/10 04:23:44;;;;;;;15.75;14.10;;;;;;;18.70;73.55;101383.09;5078880;28;20024;-69
2023/06/10 04:26:11;;;;;;;15.68;14.07;;;;;;;18.78;73.23;101390.69;5089088;28;20115;-68
2023/06/10 04:28:36;;;;;;;14.85;13.13;;;;;;;18.80;73.15;101392.34;5075298;28;20043;-69
2023/06/10 04:31:03;;;;;;;16.50;14.52;;;;;;;18.85;74.14;101400.03;5081054;28;20027;-69
2023/06/10 04:33:29;;;;;;;15.88;14.18;;;;;;;18.87;73.50;101401.66;5080372;28;20029;-69
2023/06/10 04:35:54;;;;;;;15.25;13.48;;;;;;;18.84;73.18;101399.19;5085962;28;20047;-69
2023/06/10 04:38:19;;;;;;;19.25;14.35;;;;;;;18.89;73.46;101406.88;5079861;28;20024;-68
2023/06/10 04:40:46;;;;;;;16.45;14.85;;;;;;;18.94;72.65;101402.22;5085308;28;20381;-69
2023/06/10 04:43:11;;;;;;;15.27;13.75;;;;;;;18.98;72.80;101392.34;5082573;28;20417;-68
2023/06/10 04:45:36;;;;;;;16.77;14.98;;;;;;;19.04;71.78;101406.13;5087261;28;20107;-69
2023/06/10 04:48:02;;;;;;;16.30;14.57;;;;;;;19.05;72.22;101407.81;5080325;28;20036;-68
2023/06/10 04:50:27;;;;;;;15.75;14.13;;;;;;;19.12;71.58;101400.44;5086857;28;20031;-69
2023/06/10 04:52:52;;;;;;;18.13;14.13;;;;;;;19.14;72.13;101402.06;5080441;28;20142;-69
2023/06/10 04:55:17;;;;;;;16.95;14.73;;;;;;;19.14;72.66;101412.66;5084859;28;20016;-69
2023/06/10 04:57:43;;;;;;;16.95;15.20;;;;;;;19.15;71.17;101406.41;5083508;28;20028;-69
2023/06/10 05:00:09;;;;;;;16.88;15.02;;;;;;;19.17;71.86;101403.72;5082096;28;20051;-69
2023/06/10 05:02:34;;;;;;;15.45;13.85;;;;;;;19.18;71.18;101403.63;5084143;28;20028;-69
2023/06/10 05:05:00;;;;;;;16.35;14.65;;;;;;;19.23;72.09;101405.16;5082748;28;20031;-69
2023/06/10 05:07:25;;;;;;;16.38;14.55;;;;;;;19.24;71.73;101412.19;5083062;28;20029;-69
2023/06/10 05:09:50;;;;;;;16.08;14.45;;;;;;;19.27;72.51;101412.88;5083258;28;20037;-69
2023/06/10 05:12:15;;;;;;;16.20;14.45;;;;;;;19.32;71.55;101405.56;5083221;28;20380;-69
2023/06/10 05:14:41;;;;;;;16.33;14.63;;;;;;;19.37;71.56;101408.84;5082517;28;20036;-68
2023/06/10 05:17:06;;;;;;;16.13;14.43;;;;;;;19.45;70.86;101411.06;5083380;28;20021;-69
2023/06/10 05:19:32;;;;;;;16.70;14.45;;;;;;;19.48;69.81;101407.41;5083787;28;20039;-69
2023/06/10 05:21:57;;;;;;;19.08;13.95;;;;;;;19.55;70.55;101406.16;5083617;28;20051;-69
2023/06/10 05:24:23;;;;;;;15.70;14.18;;;;;;;19.57;71.05;101409.59;5082459;28;20028;-69
2023/06/10 05:26:48;;;;;;;15.90;14.02;;;;;;;19.60;69.57;101404.16;5085892;28;20387;-69
2023/06/10 05:29:15;;;;;;;18.20;14.18;;;;;;;19.64;69.79;101409.22;5079905;28;20036;-69
2023/06/10 05:31:40;;;;;;;16.10;13.95;;;;;;;19.71;69.73;101409.75;5062003;28;20553;-69
2023/06/10 05:34:06;;;;;;;16.17;13.93;;;;;;;19.73;69.79;101413.19;5082913;28;20028;-69
2023/06/10 05:36:32;;;;;;;18.52;15.00;;;;;;;19.79;68.39;101404.06;5081319;28;20032;-69
2023/06/10 05:38:57;;;;;;;21.23;14.10;;;;;;;19.82;69.45;101409.19;5087079;28;20550;-69
2023/06/10 05:41:22;;;;;;;17.10;15.00;;;;;;;19.85;68.78;101415.19;5086412;28;20106;-69
2023/06/10 05:43:48;;;;;;;19.17;14.32;;;;;;;19.88;67.60;101409.72;5086698;28;20024;-69
2023/06/10 05:46:13;;;;;;;16.58;13.30;;;;;;;19.97;68.38;101408.38;5088488;28;20025;-69
2023/06/10 05:48:38;;;;;;;17.20;14.52;;;;;;;19.98;68.40;101407.44;5083658;28;20024;-69
2023/06/10 05:51:03;;;;;;;18.25;14.38;;;;;;;20.03;68.82;101412.47;5090335;28;20047;-69
2023/06/10 05:53:29;;;;;;;16.77;13.95;;;;;;;20.09;68.30;101414.78;5083962;28;20028;-69
2023/06/10 05:55:57;;;;;;;16.73;13.90;;;;;;;20.14;66.94;101411.88;5090510;28;20528;-69
2023/06/10 05:58:23;;;;;;;15.68;14.18;;;;;;;20.15;67.71;101401.22;5083852;28;20100;-69
2023/06/10 06:00:49;;;;;;;20.30;14.25;;;;;;;20.22;66.76;101412.34;5091419;28;20032;-69
2023/06/10 06:03:14;;;;;;;15.95;13.77;;;;;;;20.31;66.56;101417.13;5082843;28;20514;-69
2023/06/10 06:05:39;;;;;;;16.52;13.35;;;;;;;20.34;66.98;101415.16;5082041;28;20043;-69
2023/06/10 06:08:05;;;;;;;19.58;14.55;;;;;;;20.40;65.15;101424.53;5085369;28;20127;-69
2023/06/10 06:10:30;;;;;;;16.70;13.65;;;;;;;20.42;66.09;101414.72;5087662;28;20037;-69
2023/06/10 06:12:56;;;;;;;16.20;14.50;;;;;;;20.48;65.64;101413.53;5086360;28;20028;-69
2023/06/10 06:15:22;;;;;;;19.23;14.40;;;;;;;20.54;65.29;101419.38;5086111;28;20119;-69
2023/06/10 06:17:47;;;;;;;17.67;13.15;;;;;;;20.57;65.61;101413.91;5085810;28;20032;-69
2023/06/10 06:20:13;;;;;;;16.80;14.18;;;;;;;20.63;64.94;101412.69;5086469;28;20153;-69
2023/06/10 06:22:38;;;;;;;18.67;13.50;;;;;;;20.69;65.56;101420.28;5086514;28;20361;-69
2023/06/10 06:25:04;;;;;;;18.27;12.93;;;;;;;20.76;63.76;101411.09;5085922;28;20051;-69
2023/06/10 06:27:30;;;;;;;17.17;13.27;;;;;;;20.80;64.47;101420.56;5085981;28;20048;-69
2023/06/10 06:29:56;;;;;;;15.20;12.60;;;;;;;20.91;65.71;101413.78;5086438;28;20115;-69
2023/06/10 06:32:22;;;;;;;15.35;13.20;;;;;;;20.96;64.34;101417.88;5080599;28;20104;-69
2023/06/10 06:34:49;;;;;;;19.05;14.02;;;;;;;21.06;63.59;101415.56;5085616;28;20099;-69
2023/06/10 06:37:14;;;;;;;19.58;13.63;;;;;;;21.11;63.62;101417.94;5085897;28;20031;-69
2023/06/10 06:39:40;;;;;;;15.25;12.85;;;;;;;21.15;62.96;101424.75;5084672;28;20024;-69
2023/06/10 06:42:05;;;;;;;15.02;12.05;;;;;;;21.20;64.30;101412.09;5088282;28;20456;-69
2023/06/10 06:44:30;;;;;;;15.18;12.48;;;;;;;21.36;62.80;101428.84;5083873;28;20060;-69
2023/06/10 06:46:56;;;;;;;14.55;12.23;;;;;;;21.43;61.52;101429.31;5084969;28;20073;-69
2023/06/10 06:49:21;;;;;;;15.23;12.05;;;;;;;21.48;61.12;101416.63;5085862;28;20067;-69
2023/06/10 06:51:46;;;;;;;16.88;12.32;;;;;;;21.54;62.13;101424.22;5083872;28;20075;-69
2023/06/10 06:54:12;;;;;;;18.80;13.15;;;;;;;21.60;61.70;101428.28;5086295;28;20047;-69
2023/06/10 06:56:38;;;;;;;18.85;13.55;;;;;;;21.63;59.71;101423.66;5085421;28;20017;-69
2023/06/10 06:59:04;;;;;;;19.88;12.80;;;;;;;21.69;59.95;101430.41;5085011;28;20069;-69
2023/06/10 07:01:29;;;;;;;16.83;12.90;;;;;;;21.66;59.94;101426.13;5087435;28;20024;-69
2023/06/10 07:03:55;;;;;;;17.02;12.23;;;;;;;21.79;59.81;101433.34;5083086;28;20472;-69
2023/06/10 07:06:20;;;;;;;15.82;12.18;;;;;;;21.84;58.92;101428.59;5088905;28;20040;-69
2023/06/10 07:08:45;;;;;;;16.00;12.15;;;;;;;21.93;58.27;101433.34;5082195;28;20020;-69
2023/06/10 07:11:11;;;;;;;18.63;11.65;;;;;;;21.95;58.81;101431.47;5090674;28;20032;-69
2023/06/10 07:13:36;;;;;;;15.32;11.85;;;;;;;21.95;57.65;101432.31;5081480;28;20494;-69
2023/06/10 07:16:02;;;;;;;14.20;11.73;;;;;;;22.05;59.58;101432.59;5090259;28;20032;-74
2023/06/10 07:18:27;;;;;;;16.38;12.07;;;;;;;22.10;57.30;101433.13;5081825;28;20065;-72
2023/06/10 07:20:52;;;;;;;16.30;11.70;;;;;;;22.20;58.70;101436.97;5088128;28;20059;-72
2023/06/10 07:23:18;;;;;;;16.20;11.32;;;;;;;22.27;57.81;101444.53;5083588;28;20357;-69
2023/06/10 07:25:43;;;;;;;13.70;11.43;;;;;;;22.29;56.88;101438.19;5081636;28;20059;-69
2023/06/10 07:28:08;;;;;;;14.75;11.15;;;;;;;22.42;57.25;101448.88;5086510;28;20040;-69
2023/06/10 07:30:33;;;;;;;13.18;11.57;;;;;;;22.44;56.21;101444.34;5082013;28;20042;-69
2023/06/10 07:32:59;;;;;;;14.60;10.85;;;;;;;22.50;55.81;101441.28;5077421;28;20024;-68
2023/06/10 07:35:24;;;;;;;14.13;10.75;;;;;;;22.59;56.49;101445.16;5088187;28;20107;-68
2023/06/10 07:37:50;;;;;;;15.80;10.95;;;;;;;22.66;56.30;101443.78;5081793;28;20020;-68
2023/06/10 07:40:15;;;;;;;17.70;10.23;;;;;;;22.75;56.34;101445.84;5088222;28;20428;-68
2023/06/10 07:42:41;;;;;;;14.95;11.30;;;;;;;22.81;54.11;101441.94;5084984;28;20038;-69
2023/06/10 07:45:07;;;;;;;14.63;11.68;;;;;;;22.83;54.11;101446.22;5086156;28;20031;-69
2023/06/10 07:47:34;;;;;;;19.48;11.65;;;;;;;22.83;55.21;101440.91;5083720;28;20032;-69
2023/06/10 07:49:59;;;;;;;15.27;11.10;;;;;;;23.00;54.92;101450.47;5084168;28;20056;-68
2023/06/10 07:52:25;;;;;;;14.65;10.25;;;;;;;23.11;55.53;101455.06;5085033;28;20495;-69
2023/06/10 07:54:51;;;;;;;15.05;10.20;;;;;;;23.25;53.45;101440.81;5083010;28;20119;-69
2023/06/10 07:57:16;;;;;;;13.50;10.45;;;;;;;23.27;52.33;101450.41;5084852;28;20059;-69
2023/06/10 07:59:44;;;;;;;11.80;10.60;;;;;;;23.32;53.50;101431.50;5083964;28;20206;-69
2023/06/10 08:02:09;;;;;;;12.18;10.02;;;;;;;23.46;52.90;101447.38;5072605;28;20024;-69
2023/06/10 08:04:35;;;;;;;16.27;10.45;;;;;;;23.55;52.35;101444.09;5084451;28;20077;-69
2023/06/10 08:07:00;;;;;;;13.95;10.38;;;;;;;23.58;50.91;101448.34;5083566;28;20043;-69
2023/06/10 08:09:26;;;;;;;15.20;10.30;;;;;;;23.65;51.71;101452.28;5084143;28;20107;-69
2023/06/10 08:11:51;;;;;;;13.25;10.20;;;;;;;;;;5084583;28;20040;-68
2023/06/10 08:14:16;;;;;;;13.82;10.93;;;;;;;23.88;50.62;101448.06;5084029;28;20021;-69
2023/06/10 08:16:43;;;;;;;12.43;9.50;;;;;;;23.91;50.97;101455.84;5085761;28;20056;-69
2023/06/10 08:19:09;;;;;;;13.40;10.10;;;;;;;24.00;50.23;101447.22;5081919;28;20028;-69
2023/06/10 08:21:36;;;;;;;16.58;10.50;;;;;;;24.11;49.86;101449.09;5088736;28;20353;-69
2023/06/10 08:24:01;;;;;;;12.80;9.80;;;;;;;24.19;49.36;101448.56;5079798;28;20036;-69
2023/06/10 08:26:26;;;;;;;14.18;9.57;;;;;;;24.26;50.16;101441.81;5089688;28;20028;-69
2023/06/10 08:28:52;;;;;;;12.43;9.13;;;;;;;24.41;49.00;101443.41;5080385;28;20057;-69
2023/06/10 08:31:17;;;;;;;11.07;9.10;;;;;;;24.58;50.06;101446.69;5075959;28;20412;-69
2023/06/10 08:33:42;;;;;;;12.52;9.00;;;;;;;24.68;47.95;101451.22;5084089;28;20115;-69
2023/06/10 08:36:08;;;;;;;13.68;9.85;;;;;;;24.74;47.66;101433.91;5084368;28;20025;-69
2023/06/10 08:38:34;;;;;;;10.77;8.82;;;;;;;24.91;48.61;101441.50;5081651;28;20040;-69
2023/06/10 08:41:01;;;;;;;12.65;9.15;;;;;;;24.96;48.00;101444.69;5089532;28;20020;-69
2023/06/10 08:43:34;;;;;;;11.20;9.20;;;;;;;25.07;46.59;101448.38;5080802;28;20505;-69
2023/06/10 08:46:01;;;;;;;13.07;8.82;;;;;;;25.18;47.93;101446.66;5073393;28;20032;-69
2023/06/10 08:48:31;;;;;;;13.15;8.98;;;;;;;25.34;46.54;101446.34;5080569;28;20082;-69
2023/06/10 08:50:57;;;;;;;12.95;9.63;;;;;;;25.43;47.22;101447.44;5086793;28;20844;-69
2023/06/10 08:53:24;;;;;;;12.07;9.43;;;;;;;25.44;45.32;101449.13;5080572;28;20070;-69
2023/06/10 08:55:51;;;;;;;12.70;9.45;;;;;;;25.46;46.42;101441.88;5088143;28;20028;-69
2023/06/10 08:58:18;;;;;;;11.77;9.05;;;;;;;25.53;44.92;101444.91;5079749;28;20047;-69
2023/06/10 09:00:43;;;;;;;11.57;8.90;;;;;;;25.64;44.73;101445.78;5087942;28;20088;-69
2023/06/10 09:03:09;;;;;;;11.23;8.02;;;;;;;25.73;43.79;101432.69;5080412;28;20521;-68
2023/06/10 09:05:36;;;;;;;10.77;8.65;;;;;;;25.95;44.82;101439.91;5086009;28;20036;-69
2023/06/10 09:08:02;;;;;;;11.65;8.43;;;;;;;26.00;43.93;101440.41;5082133;28;20046;-69
2023/06/10 09:10:27;;;;;;;13.05;8.60;;;;;;;26.08;43.99;101429.94;5087101;28;20485;-69
2023/06/10 09:12:53;;;;;;;12.05;9.30;;;;;;;26.16;43.51;101432.88;5086772;28;20042;-69
2023/06/10 09:15:18;;;;;;;14.00;8.95;;;;;;;26.21;44.23;101427.97;5087590;28;20030;-69
2023/06/10 09:17:44;;;;;;;11.80;8.68;;;;;;;26.30;43.64;101437.09;5087665;28;20102;-69
2023/06/10 09:20:10;;;;;;;11.30;8.32;;;;;;;26.30;43.15;101437.94;5085953;28;20430;-69
2023/06/10 09:22:36;;;;;;;9.88;8.25;;;;;;;26.24;42.47;101435.75;5085943;28;20518;-69
2023/06/10 09:25:07;;;;;;;10.23;8.32;;;;;;;26.34;42.91;101442.06;5087679;28;20024;-69
2023/06/10 09:27:32;;;;;;;10.32;8.32;;;;;;;26.45;42.68;101443.00;5084039;28;20044;-69
2023/06/10 09:29:58;;;;;;;15.13;8.50;;;;;;;26.59;42.54;101445.47;5087311;28;20038;-69
2023/06/10 09:32:24;;;;;;;9.60;8.35;;;;;;;26.68;42.32;101442.00;5082005;28;20020;-69
2023/06/10 09:34:50;;;;;;;9.13;8.13;;;;;;;26.82;41.61;101431.03;5086828;28;20016;-69
2023/06/10 09:37:23;;;;;;;11.10;8.27;;;;;;;26.89;41.54;101434.06;5087870;28;20031;-69
2023/06/10 09:40:08;;;;;;;;;;;;;;;26.99;42.27;101440.31;5085979;28;20044;-69
2023/06/10 09:42:35;;;;;;;9.57;7.53;;;;;;;27.07;41.69;101437.84;5081548;28;19947;-69
2023/06/10 09:45:04;;;;;;;8.88;7.47;;;;;;;27.21;40.43;101430.53;5087799;28;20042;-69
2023/06/10 09:47:29;;;;;;;12.40;8.30;;;;;;;27.44;40.08;101428.59;5086205;28;20020;-69
2023/06/10 09:49:55;;;;;;;8.65;7.85;;;;;;;27.55;40.55;101425.81;5086223;28;20085;-69
2023/06/10 09:52:28;;;;;;;11.13;8.20;;;;;;;27.62;39.91;101431.50;5087574;28;20409;-69
2023/06/10 09:54:58;;;;;;;10.45;7.60;;;;;;;27.70;39.13;101432.53;5085506;28;20369;-69
2023/06/10 09:57:23;;;;;;;12.63;7.63;;;;;;;27.74;38.86;101425.91;5087524;28;20027;-69
2023/06/10 09:59:53;;;;;;;10.27;7.72;;;;;;;27.85;38.76;101429.53;5086272;28;20081;-69
2023/06/10 10:02:19;;;;;;;9.50;7.80;;;;;;;27.95;38.32;101422.38;5086134;28;20484;-69
2023/06/10 10:04:44;;;;;;;12.00;7.72;;;;;;;28.04;37.78;101423.41;5086897;28;20098;-69
2023/06/10 10:07:11;;;;;;;9.77;8.35;;;;;;;28.11;39.48;101416.50;5086460;28;20027;-69
2023/06/10 10:09:37;;;;;;;10.07;7.82;;;;;;;28.19;38.08;101414.00;5086016;28;20031;-69
2023/06/10 10:12:08;;;;;;;11.80;7.30;;;;;;;28.37;38.29;101412.34;5086871;28;20031;-69
2023/06/10 10:14:33;;;;;;;10.90;7.85;;;;;;;28.48;39.02;101411.41;5086834;28;20387;-69
2023/06/10 10:17:01;;;;;;;8.23;7.13;;;;;;;28.54;38.88;101407.31;5085422;28;20037;-69
2023/06/10 10:19:31;;;;;;;11.10;7.82;;;;;;;28.63;38.04;101417.22;5086982;28;20063;-69
2023/06/10 10:22:03;;;;;;;11.60;7.68;;;;;;;28.75;37.24;101404.53;5084461;28;20035;-69
2023/06/10 10:25:01;;;;;;;8.70;7.80;;;;;;;28.78;37.52;101390.84;5085408;28;20058;-69
2023/06/10 10:27:35;;;;;;;11.25;7.78;;;;;;;28.83;36.08;101412.72;5082709;28;20360;-69
2023/06/10 10:30:08;;;;;;;8.25;7.38;;;;;;;28.82;35.87;101397.63;5085284;28;20028;-69
2023/06/10 10:33:04;;;;;;;9.45;7.55;;;;;;;28.96;37.27;101407.06;5079383;28;20039;-69
2023/06/10 10:35:32;;;;;;;10.60;7.35;;;;;;;28.93;35.87;101397.44;5089796;28;20119;-69
2023/06/10 10:37:58;;;;;;;9.95;7.85;;;;;;;29.12;36.88;101408.22;5082228;28;20043;-69
2023/06/10 10:40:25;;;;;;;10.45;7.70;;;;;;;29.24;37.24;101403.53;5090515;28;20020;-69
2023/06/10 10:42:51;;;;;;;10.45;7.20;;;;;;;29.41;37.71;101401.94;5078390;28;20460;-69
2023/06/10 10:45:17;;;;;;;10.98;7.57;;;;;;;29.50;35.08;101394.88;5088129;28;20463;-69
2023/06/10 10:47:45;;;;;;;21.15;7.97;;;;;;;29.55;35.19;101403.31;5084030;28;20051;-69
2023/06/10 10:50:16;;;;;;;8.70;7.90;;;;;;;29.60;36.23;101396.56;5081541;28;20032;-69
2023/06/10 10:52:55;;;;;;;9.18;7.85;;;;;;;29.87;36.04;101397.56;5084042;28;20024;-69
2023/06/10 10:55:22;;;;;;;9.45;7.40;;;;;;;29.82;34.13;101399.84;5082950;28;20104;-69
2023/06/10 10:58:07;;;;;;;9.18;7.30;;;;;;;29.84;35.16;101397.88;5084066;28;20028;-69
2023/06/10 11:00:38;;;;;;;9.93;7.20;;;;;;;29.81;34.06;101395.47;5084823;28;20035;-69
2023/06/10 11:03:03;;;;;;;9.38;7.70;;;;;;;29.93;34.45;101393.44;5083464;28;20031;-69
2023/06/10 11:05:39;;;;;;;8.50;7.53;;;;;;;30.04;34.51;101393.25;5087279;28;20028;-69
2023/06/10 11:08:06;;;;;;;9.38;7.20;;;;;;;30.19;33.98;101391.78;5083703;28;20019;-68
2023/06/10 11:10:34;;;;;;;12.00;7.88;;;;;;;30.11;32.85;101391.63;5087515;28;20541;-69
2023/06/10 11:13:05;;;;;;;10.85;7.82;;;;;;;30.16;32.63;101391.22;5083795;28;20524;-69